Time;durP1;ratioP1;P1;durP2;ratioP2;P2;SDS_P1;SDS_P2;PMS_P1;PMS_P2;Temp;Humidity;BMP_temperature;BMP_pressure;BME280_temperature;BME280_humidity;BME280_pressure;Samples;Min_cycle;Max_cycle;Signal;HPM_P1;HPM_P2
2023/10/30 00:00:14;;;;;;;7.00;1.17;;;;;;;15.49;72.39;98670.00;4963930;28;20124;-77
2023/10/30 00:02:40;;;;;;;7.50;1.20;;;;;;;15.48;72.38;98664.78;4941076;29;20027;-81
2023/10/30 00:05:06;;;;;;;9.93;1.37;;;;;;;15.44;72.30;98648.16;4953607;28;20550;-76
2023/10/30 00:07:32;;;;;;;8.23;1.10;;;;;;;15.40;72.33;98643.94;4953946;29;20054;-82
2023/10/30 00:09:57;;;;;;;8.63;0.90;;;;;;;15.37;72.50;98630.84;4954165;29;20035;-75
2023/10/30 00:12:22;;;;;;;6.60;1.30;;;;;;;15.36;72.41;98623.81;4954252;29;20062;-75
2023/10/30 00:14:48;;;;;;;6.43;1.20;;;;;;;15.35;72.64;98624.75;4954355;29;20051;-77
2023/10/30 00:17:13;;;;;;;7.17;1.77;;;;;;;15.35;72.66;98627.41;4954023;29;20034;-75
2023/10/30 00:19:39;;;;;;;5.23;0.90;;;;;;;15.32;72.59;98630.22;4953934;29;20315;-76
2023/10/30 00:22:04;;;;;;;5.93;1.00;;;;;;;15.29;72.52;98607.34;4953940;29;20115;-83
2023/10/30 00:24:32;;;;;;;6.90;1.27;;;;;;;15.24;72.91;98572.25;4953884;29;20027;-75
2023/10/30 00:26:58;;;;;;;6.10;1.30;;;;;;;15.20;73.03;98570.69;4954111;29;20054;-87
2023/10/30 00:29:23;;;;;;;7.35;1.70;;;;;;;15.19;73.06;98575.13;4953782;29;20491;-76
2023/10/30 00:31:49;;;;;;;5.73;1.23;;;;;;;15.17;73.00;98592.91;4953837;29;20034;-75
2023/10/30 00:34:14;;;;;;;8.07;1.47;;;;;;;15.18;72.96;98597.28;4953498;29;20023;-76
2023/10/30 00:36:40;;;;;;;5.50;1.30;;;;;;;15.17;73.11;98598.22;4972357;28;20022;-76
2023/10/30 00:39:05;;;;;;;7.82;1.27;;;;;;;15.15;73.01;98594.78;4972803;28;20091;-75
2023/10/30 00:41:31;;;;;;;9.77;1.93;;;;;;;15.14;73.05;98597.50;4972974;28;20154;-78
2023/10/30 00:43:56;;;;;;;6.32;1.48;;;;;;;15.13;73.16;98590.47;4972633;28;20031;-76
2023/10/30 00:46:22;;;;;;;5.83;1.40;;;;;;;15.14;73.08;98595.72;4956124;28;20030;-76
2023/10/30 00:48:48;;;;;;;6.30;1.25;;;;;;;15.13;72.98;98598.44;4955401;28;20039;-79
2023/10/30 00:51:14;;;;;;;6.63;1.33;;;;;;;15.14;72.93;98614.28;4959570;28;20035;-81
2023/10/30 00:53:39;;;;;;;4.97;1.20;;;;;;;15.13;73.06;98617.88;4956752;28;20042;-81
2023/10/30 00:56:05;;;;;;;6.07;1.20;;;;;;;15.13;73.01;98606.38;4972640;28;20109;-84
2023/10/30 00:58:30;;;;;;;5.93;1.20;;;;;;;15.13;72.83;98607.25;4949311;28;20086;-75
2023/10/30 01:00:56;;;;;;;5.55;1.35;;;;;;;15.15;73.05;98616.00;4950818;28;20069;-75
2023/10/30 01:03:23;;;;;;;6.97;1.40;;;;;;;15.13;72.88;98609.91;4972080;28;20047;-86
2023/10/30 01:05:56;;;;;;;6.25;1.58;;;;;;;15.13;73.10;98596.66;4972173;28;20046;-84
2023/10/30 01:08:21;;;;;;;5.80;1.53;;;;;;;15.15;72.96;98586.81;4972220;28;20471;-78
2023/10/30 01:10:46;;;;;;;8.15;1.25;;;;;;;15.17;72.89;98587.59;4972296;28;20065;-76
2023/10/30 01:13:12;;;;;;;7.33;1.40;;;;;;;15.18;73.00;98578.72;4972715;28;20443;-79
2023/10/30 01:15:37;;;;;;;8.43;1.63;;;;;;;15.18;72.88;98559.28;4972451;28;20027;-76
2023/10/30 01:18:02;;;;;;;9.07;1.47;;;;;;;15.19;72.92;98548.63;4971450;28;20031;-75
2023/10/30 01:20:28;;;;;;;7.73;1.40;;;;;;;15.18;73.07;98549.53;4972029;28;20114;-75
2023/10/30 01:22:53;;;;;;;5.03;1.40;;;;;;;15.12;73.41;98547.22;4971851;28;20026;-75
2023/10/30 01:25:19;;;;;;;8.20;1.50;;;;;;;15.13;73.24;98542.75;4971620;28;20078;-78
2023/10/30 01:27:45;;;;;;;8.03;1.40;;;;;;;15.14;73.37;98540.03;4972473;28;20042;-85
2023/10/30 01:30:11;;;;;;;7.63;1.33;;;;;;;15.15;73.34;98530.28;4972273;28;20483;-87
2023/10/30 01:32:36;;;;;;;4.57;1.50;;;;;;;15.09;73.24;98525.28;4972240;28;20480;-79
2023/10/30 01:35:02;;;;;;;7.13;1.35;;;;;;;15.08;73.11;98519.16;4954577;28;20022;-85
2023/10/30 01:37:27;;;;;;;5.37;1.20;;;;;;;15.06;73.33;98518.34;4971877;28;20034;-77
2023/10/30 01:39:54;;;;;;;6.67;1.60;;;;;;;15.03;73.37;98527.31;4971904;28;20038;-86
2023/10/30 01:42:19;;;;;;;8.07;1.60;;;;;;;15.00;73.29;98521.31;4954342;28;20073;-78
2023/10/30 01:44:55;;;;;;;6.87;1.60;;;;;;;14.97;73.29;98517.03;4971964;28;20121;-76
2023/10/30 01:47:21;;;;;;;6.80;1.40;;;;;;;14.98;73.35;98528.47;4959361;28;20558;-76
2023/10/30 01:49:47;;;;;;;8.15;1.52;;;;;;;14.95;73.52;98526.00;4952350;29;20034;-78
2023/10/30 01:52:13;;;;;;;6.37;1.20;;;;;;;14.95;73.38;98516.25;4952460;29;20023;-75
2023/10/30 01:54:39;;;;;;;7.30;1.55;;;;;;;14.89;73.42;98514.78;4963386;28;20035;-80
2023/10/30 01:57:05;;;;;;;6.83;1.67;;;;;;;14.91;73.54;98518.19;4977874;28;20034;-82
2023/10/30 01:59:31;;;;;;;7.80;1.60;;;;;;;14.91;73.29;98520.84;4990995;28;20022;-85
2023/10/30 02:01:57;;;;;;;6.45;1.40;;;;;;;14.90;73.55;98516.47;4991042;28;20034;-80
2023/10/30 02:04:23;;;;;;;6.90;1.60;;;;;;;14.90;73.41;98505.00;4990705;28;20029;-77
2023/10/30 02:06:48;;;;;;;7.55;1.40;;;;;;;14.90;73.45;98495.28;4990701;28;20043;-75
2023/10/30 02:09:14;;;;;;;4.97;1.60;;;;;;;14.88;73.24;98491.84;4990768;28;20054;-79
2023/10/30 02:11:39;;;;;;;7.80;1.70;;;;;;;14.81;73.50;98489.59;4990956;28;20077;-76
2023/10/30 02:14:04;;;;;;;8.07;1.90;;;;;;;14.73;73.93;98477.59;4990509;28;20065;-75
2023/10/30 02:16:30;;;;;;;7.73;1.87;;;;;;;14.72;73.87;98472.34;4990941;28;20026;-76
2023/10/30 02:18:56;;;;;;;9.38;1.80;;;;;;;14.71;74.09;98465.34;4990549;28;20367;-76
2023/10/30 02:21:21;;;;;;;6.83;1.63;;;;;;;14.69;74.31;98465.38;4990974;28;20087;-75
2023/10/30 02:23:46;;;;;;;9.13;2.27;;;;;;;14.67;74.12;98471.69;4990728;28;20041;-82
2023/10/30 02:26:12;;;;;;;9.15;1.73;;;;;;;14.61;74.41;98486.09;4982949;28;20034;-75
2023/10/30 02:28:37;;;;;;;10.87;2.03;;;;;;;14.53;74.43;98481.19;4971184;28;20039;-75
2023/10/30 02:31:03;;;;;;;7.05;2.40;;;;;;;14.50;74.31;98479.56;4971529;28;20019;-78
2023/10/30 02:33:28;;;;;;;11.30;2.07;;;;;;;14.51;74.40;98472.44;4971071;28;20027;-76
2023/10/30 02:35:54;;;;;;;7.77;2.03;;;;;;;14.47;74.62;98455.88;4970990;28;20030;-75
2023/10/30 02:38:19;;;;;;;5.57;2.03;;;;;;;14.44;74.93;98449.84;4971016;28;20406;-75
2023/10/30 02:40:44;;;;;;;7.77;2.23;;;;;;;14.46;74.58;98435.59;4971103;28;20027;-79
2023/10/30 02:43:10;;;;;;;9.60;2.10;;;;;;;14.49;74.42;98437.25;4945211;29;20097;-82
2023/10/30 02:45:35;;;;;;;8.52;2.35;;;;;;;14.47;74.69;98439.97;4951535;29;20644;-75
2023/10/30 02:48:01;;;;;;;9.20;2.43;;;;;;;14.44;74.83;98433.97;4951647;29;20035;-75
2023/10/30 02:50:26;;;;;;;9.70;3.50;;;;;;;14.38;74.92;98432.47;4951431;28;20385;-79
2023/10/30 02:52:51;;;;;;;9.37;2.60;;;;;;;14.33;74.86;98432.69;4933966;29;20101;-76
2023/10/30 02:55:17;;;;;;;12.95;2.75;;;;;;;14.32;74.78;98427.50;4967688;28;20118;-81
2023/10/30 02:57:42;;;;;;;6.77;2.07;;;;;;;14.35;75.04;98419.38;4970834;28;20518;-77
2023/10/30 03:00:08;;;;;;;9.60;2.47;;;;;;;14.38;74.82;98411.28;4970992;28;20546;-76
2023/10/30 03:02:33;;;;;;;9.57;2.55;;;;;;;14.41;74.84;98397.88;4953387;28;20565;-75
2023/10/30 03:04:59;;;;;;;8.13;2.43;;;;;;;14.43;74.67;98400.47;4970708;28;20034;-83
2023/10/30 03:07:24;;;;;;;11.27;2.33;;;;;;;14.41;74.51;98397.88;4970840;28;20023;-76
2023/10/30 03:09:49;;;;;;;8.60;2.60;;;;;;;14.42;74.54;98398.75;4970627;28;20452;-82
2023/10/30 03:12:15;;;;;;;9.77;2.60;;;;;;;14.41;74.87;98397.06;4970693;28;20050;-78
2023/10/30 03:14:40;;;;;;;8.93;3.03;;;;;;;14.41;74.67;98397.06;4953373;28;20286;-78
2023/10/30 03:17:06;;;;;;;8.07;2.47;;;;;;;14.42;74.87;98402.25;4970835;28;20428;-81
2023/10/30 03:19:32;;;;;;;9.03;2.30;;;;;;;14.42;74.94;98393.47;4970683;28;20035;-75
2023/10/30 03:21:58;;;;;;;10.05;2.75;;;;;;;14.42;74.79;98382.88;4970743;28;20380;-75
2023/10/30 03:24:23;;;;;;;9.80;2.50;;;;;;;14.44;74.80;98379.19;4970397;28;20085;-76
2023/10/30 03:26:50;;;;;;;10.60;2.83;;;;;;;14.43;74.76;98374.84;4970381;28;20113;-76
2023/10/30 03:29:16;;;;;;;11.93;2.83;;;;;;;14.41;75.03;98359.97;4970651;28;20035;-80
2023/10/30 03:31:41;;;;;;;13.40;3.03;;;;;;;14.39;74.92;98356.56;4953177;28;20096;-76
2023/10/30 03:34:06;;;;;;;11.93;2.80;;;;;;;14.36;75.11;98349.59;4970343;28;20110;-75
2023/10/30 03:36:32;;;;;;;9.27;3.00;;;;;;;14.37;74.95;98342.53;4970560;28;20491;-81
2023/10/30 03:38:57;;;;;;;14.57;2.97;;;;;;;14.38;75.03;98349.53;4965713;28;20024;-76
2023/10/30 03:41:23;;;;;;;10.60;3.10;;;;;;;14.38;75.02;98338.94;4953235;28;20034;-75
2023/10/30 03:43:48;;;;;;;10.77;2.87;;;;;;;14.35;75.26;98343.47;4954599;29;20045;-78
2023/10/30 03:46:14;;;;;;;10.57;2.73;;;;;;;14.35;75.10;98346.13;4954777;28;20038;-77
2023/10/30 03:48:39;;;;;;;12.30;2.83;;;;;;;14.35;75.19;98339.94;4954396;29;20023;-76
2023/10/30 03:51:05;;;;;;;12.93;2.73;;;;;;;14.34;75.15;98339.09;4954719;29;20031;-75
2023/10/30 03:53:31;;;;;;;14.98;2.90;;;;;;;14.37;75.24;98331.94;4957033;28;20526;-84
2023/10/30 03:55:57;;;;;;;10.90;3.00;;;;;;;14.34;75.17;98327.66;4975239;28;20107;-86
2023/10/30 03:58:22;;;;;;;8.90;2.37;;;;;;;14.32;75.36;98325.06;4974150;28;20696;-84
2023/10/30 04:00:47;;;;;;;11.48;2.78;;;;;;;14.31;75.40;98325.16;4973752;28;20542;-84
2023/10/30 04:03:13;;;;;;;13.60;2.80;;;;;;;14.31;75.20;98335.75;4973626;28;20113;-74
2023/10/30 04:05:38;;;;;;;12.40;2.70;;;;;;;14.29;75.21;98319.94;4973503;28;20166;-77
2023/10/30 04:08:04;;;;;;;11.33;2.90;;;;;;;14.29;75.12;98314.63;4973603;28;20498;-85
2023/10/30 04:10:30;;;;;;;11.43;2.95;;;;;;;14.31;75.23;98317.22;4955694;28;20027;-75
2023/10/30 04:12:56;;;;;;;11.65;3.08;;;;;;;14.29;75.09;98306.69;4973798;28;20122;-80
2023/10/30 04:15:21;;;;;;;9.87;2.57;;;;;;;14.29;75.31;98304.03;4973527;28;20454;-75
2023/10/30 04:17:47;;;;;;;12.80;3.10;;;;;;;14.30;75.30;98311.06;4973510;28;20390;-81
2023/10/30 04:20:12;;;;;;;11.43;3.13;;;;;;;14.26;75.31;98304.22;4973623;28;20065;-77
2023/10/30 04:22:38;;;;;;;11.63;4.47;;;;;;;14.26;75.34;98301.56;4973383;28;20549;-84
2023/10/30 04:25:06;;;;;;;14.20;4.03;;;;;;;14.27;75.14;98297.97;4973159;28;20588;-84
2023/10/30 04:27:33;;;;;;;12.07;3.28;;;;;;;14.27;75.39;98305.06;4972915;28;20038;-75
2023/10/30 04:29:59;;;;;;;10.75;3.00;;;;;;;14.28;75.32;98301.50;4973121;28;20105;-88
2023/10/30 04:32:24;;;;;;;12.03;2.90;;;;;;;14.29;75.05;98293.47;4973252;28;20031;-86
2023/10/30 04:34:49;;;;;;;13.70;3.10;;;;;;;14.30;75.07;98294.31;4970787;28;20073;-77
2023/10/30 04:37:15;;;;;;;11.53;2.90;;;;;;;14.28;75.33;98286.44;4953808;29;20278;-75
2023/10/30 04:39:40;;;;;;;13.60;3.00;;;;;;;14.27;75.22;98287.38;4953606;29;20121;-76
2023/10/30 04:42:05;;;;;;;12.23;2.87;;;;;;;14.28;75.28;98286.44;4953567;28;20062;-87
2023/10/30 04:44:31;;;;;;;13.90;3.10;;;;;;;14.29;75.23;98289.97;4953305;28;20118;-76
2023/10/30 04:46:56;;;;;;;14.90;3.10;;;;;;;14.30;75.07;98289.03;4953655;29;20046;-83
2023/10/30 04:49:22;;;;;;;14.23;3.07;;;;;;;14.29;75.26;98288.16;4953405;29;20464;-75
2023/10/30 04:51:47;;;;;;;12.60;3.47;;;;;;;14.30;75.24;98289.03;4952762;28;20035;-79
2023/10/30 04:54:12;;;;;;;15.77;3.13;;;;;;;14.30;75.18;98292.53;4960745;28;20073;-85
2023/10/30 04:56:38;;;;;;;10.27;2.90;;;;;;;14.31;75.01;98294.22;4972663;28;20033;-77
2023/10/30 04:59:03;;;;;;;14.47;2.90;;;;;;;14.30;75.28;98294.31;4972570;28;20114;-83
2023/10/30 05:01:29;;;;;;;13.57;2.60;;;;;;;14.29;75.23;98290.81;4972665;28;20270;-76
2023/10/30 05:03:54;;;;;;;12.43;3.00;;;;;;;14.29;75.30;98300.56;4972313;28;20188;-75
2023/10/30 05:06:19;;;;;;;11.63;2.87;;;;;;;14.27;75.05;98295.34;4972211;28;20178;-83
2023/10/30 05:08:45;;;;;;;13.23;3.27;;;;;;;14.26;75.13;98293.63;4972464;28;20042;-77
2023/10/30 05:11:10;;;;;;;12.65;3.28;;;;;;;14.26;75.20;98283.03;4972507;28;20551;-75
2023/10/30 05:13:36;;;;;;;11.23;3.20;;;;;;;14.25;75.49;98278.66;4972293;28;20548;-77
2023/10/30 05:16:01;;;;;;;11.87;2.73;;;;;;;14.26;75.22;98283.03;4955009;28;20492;-77
2023/10/30 05:18:29;;;;;;;11.67;3.00;;;;;;;14.26;75.20;98277.72;4972045;28;20037;-75
2023/10/30 05:20:55;;;;;;;14.15;3.10;;;;;;;14.23;75.48;98280.53;4972048;28;20034;-76
2023/10/30 05:23:20;;;;;;;15.47;3.53;;;;;;;14.16;75.75;98277.34;4972177;28;20408;-75
2023/10/30 05:25:46;;;;;;;11.80;3.00;;;;;;;14.11;75.64;98270.59;4971774;28;20029;-75
2023/10/30 05:28:12;;;;;;;10.20;2.90;;;;;;;14.09;75.71;98265.38;4972133;28;20130;-75
2023/10/30 05:30:37;;;;;;;12.55;3.00;;;;;;;14.09;75.95;98265.38;4972656;28;20109;-76
2023/10/30 05:33:03;;;;;;;10.70;3.00;;;;;;;14.10;75.77;98264.44;4972133;28;20030;-80
2023/10/30 05:35:28;;;;;;;12.60;3.03;;;;;;;14.12;75.68;98267.00;4962426;28;20034;-75
2023/10/30 05:37:54;;;;;;;12.57;3.13;;;;;;;14.12;75.44;98267.84;4952657;29;20487;-85
2023/10/30 05:40:21;;;;;;;15.33;3.63;;;;;;;14.13;75.51;98266.06;4968685;28;20110;-82
2023/10/30 05:42:46;;;;;;;18.20;3.08;;;;;;;14.11;75.89;98263.50;4972010;28;20030;-82
2023/10/30 05:45:12;;;;;;;11.23;2.87;;;;;;;14.11;75.85;98268.78;4971774;28;20082;-75
2023/10/30 05:47:37;;;;;;;10.67;2.90;;;;;;;14.10;75.62;98261.78;4971894;28;20031;-80
2023/10/30 05:50:03;;;;;;;15.33;3.67;;;;;;;14.11;75.89;98270.59;4972088;28;20018;-78
2023/10/30 05:52:29;;;;;;;12.98;4.45;;;;;;;14.12;75.75;98259.06;4971756;28;20037;-75
2023/10/30 05:54:54;;;;;;;18.60;5.65;;;;;;;14.13;75.66;98266.06;4971406;28;20058;-75
2023/10/30 05:57:19;;;;;;;14.63;4.43;;;;;;;14.13;75.83;98266.06;4971420;28;20480;-75
2023/10/30 05:59:45;;;;;;;13.50;3.77;;;;;;;14.13;75.74;98260.78;4971485;28;20027;-75
2023/10/30 06:02:10;;;;;;;10.87;3.13;;;;;;;14.12;75.88;98259.06;4953963;28;20058;-77
2023/10/30 06:04:35;;;;;;;14.13;3.87;;;;;;;14.10;75.97;98253.84;4971099;28;20027;-75
2023/10/30 06:07:01;;;;;;;11.90;3.50;;;;;;;14.10;75.82;98259.13;4971684;28;20061;-75
2023/10/30 06:09:27;;;;;;;21.63;3.80;;;;;;;14.09;76.24;98264.50;4971267;28;20294;-76
2023/10/30 06:11:53;;;;;;;14.30;4.20;;;;;;;14.04;76.16;98252.34;4971317;28;20030;-76
2023/10/30 06:14:18;;;;;;;11.98;4.43;;;;;;;14.02;76.44;98256.88;4971326;28;20030;-76
2023/10/30 06:16:44;;;;;;;14.30;3.90;;;;;;;14.01;76.48;98268.41;4971067;28;20510;-85
2023/10/30 06:19:10;;;;;;;12.07;3.90;;;;;;;13.99;76.47;98270.25;4971093;28;20288;-78
2023/10/30 06:21:36;;;;;;;18.67;4.00;;;;;;;13.95;76.81;98279.28;4971458;28;20037;-75
2023/10/30 06:24:01;;;;;;;17.25;3.83;;;;;;;13.93;76.83;98292.59;4971162;28;20376;-80
2023/10/30 06:26:27;;;;;;;14.97;3.77;;;;;;;13.91;76.90;98285.69;4971023;28;20027;-75
2023/10/30 06:28:52;;;;;;;16.27;3.40;;;;;;;13.92;77.16;98287.38;4971021;28;20634;-75
2023/10/30 06:31:19;;;;;;;13.17;3.43;;;;;;;13.93;76.98;98286.47;4953730;28;20034;-78
2023/10/30 06:33:46;;;;;;;16.13;3.65;;;;;;;13.95;76.92;98289.88;4970712;28;20047;-78
2023/10/30 06:36:11;;;;;;;16.52;3.53;;;;;;;13.96;76.82;98288.94;4962565;28;20171;-79
2023/10/30 06:38:37;;;;;;;15.18;3.03;;;;;;;13.99;77.04;98287.94;4963327;28;20105;-78
2023/10/30 06:41:04;;;;;;;13.83;3.20;;;;;;;13.99;76.84;98286.13;4940592;28;20026;-77
2023/10/30 06:43:30;;;;;;;11.35;3.42;;;;;;;14.01;76.92;98299.31;4960718;28;20521;-76
2023/10/30 06:46:02;;;;;;;10.55;3.00;;;;;;;14.02;76.70;98309.81;4968827;28;20030;-84
2023/10/30 06:48:28;;;;;;;17.00;3.53;;;;;;;14.01;76.85;98308.09;4968924;28;20062;-84
2023/10/30 06:50:54;;;;;;;17.13;3.63;;;;;;;14.03;76.87;98308.88;4964631;28;20035;-76
2023/10/30 06:53:20;;;;;;;12.93;3.35;;;;;;;14.04;76.84;98305.28;4952249;28;20027;-79
2023/10/30 06:55:45;;;;;;;15.33;3.17;;;;;;;14.05;76.79;98314.94;4967016;28;20035;-83
2023/10/30 06:58:10;;;;;;;10.27;2.93;;;;;;;14.06;76.84;98319.28;4947944;28;20069;-81
2023/10/30 07:00:36;;;;;;;16.23;3.63;;;;;;;14.08;76.88;98327.19;4961765;28;20054;-81
2023/10/30 07:03:01;;;;;;;14.40;3.90;;;;;;;14.07;77.09;98326.31;4957403;28;20043;-78
2023/10/30 07:05:27;;;;;;;16.00;3.37;;;;;;;14.03;77.18;98330.03;4951338;29;20052;-85
2023/10/30 07:07:52;;;;;;;18.98;3.63;;;;;;;14.05;77.23;98325.53;4951209;29;20031;-79
2023/10/30 07:10:18;;;;;;;12.53;3.73;;;;;;;14.06;76.88;98332.53;4954028;28;20031;-77
2023/10/30 07:12:43;;;;;;;13.63;3.70;;;;;;;14.07;77.16;98331.59;4959444;28;20126;-77
2023/10/30 07:15:10;;;;;;;19.97;4.10;;;;;;;14.06;77.09;98337.81;4969485;28;20054;-78
2023/10/30 07:17:35;;;;;;;16.23;3.47;;;;;;;14.04;77.34;98339.69;4955198;28;20023;-85
2023/10/30 07:20:03;;;;;;;16.33;3.60;;;;;;;14.06;77.44;98339.63;4961590;28;20037;-82
2023/10/30 07:22:28;;;;;;;18.00;4.85;;;;;;;14.07;77.16;98341.34;4974084;28;20023;-80
2023/10/30 07:24:53;;;;;;;18.00;4.83;;;;;;;14.12;77.15;98351.72;4973945;28;20031;-84
2023/10/30 07:27:19;;;;;;;15.93;4.17;;;;;;;14.13;77.01;98350.78;4957493;28;20027;-77
2023/10/30 07:29:45;;;;;;;20.00;4.32;;;;;;;14.13;77.09;98362.19;4954519;29;20115;-85
2023/10/30 07:32:10;;;;;;;19.27;4.23;;;;;;;14.13;77.15;98366.66;4965570;28;20035;-77
2023/10/30 07:34:35;;;;;;;11.07;3.97;;;;;;;14.16;77.25;98371.78;4973780;28;20033;-83
2023/10/30 07:37:01;;;;;;;21.42;3.80;;;;;;;14.18;76.96;98364.63;4974204;28;20057;-77
2023/10/30 07:39:26;;;;;;;14.33;3.83;;;;;;;14.19;76.98;98372.47;4973932;28;20058;-77
2023/10/30 07:41:51;;;;;;;16.53;3.77;;;;;;;14.23;77.10;98367.91;4974026;28;20030;-77
2023/10/30 07:44:17;;;;;;;14.50;3.80;;;;;;;14.24;77.06;98374.91;4973704;28;20368;-82
2023/10/30 07:46:42;;;;;;;14.47;3.60;;;;;;;14.29;76.92;98382.63;4973478;28;20037;-79
2023/10/30 07:49:08;;;;;;;17.25;4.03;;;;;;;14.30;77.03;98385.19;4973684;28;20375;-77
2023/10/30 07:51:33;;;;;;;14.90;4.10;;;;;;;14.33;76.95;98385.03;4973559;28;20035;-77
2023/10/30 07:53:59;;;;;;;13.97;3.73;;;;;;;14.36;77.01;98389.31;4973670;28;20506;-78
2023/10/30 07:56:24;;;;;;;14.98;4.10;;;;;;;14.38;77.29;98402.50;4973585;28;20082;-80
2023/10/30 07:58:50;;;;;;;16.23;3.97;;;;;;;14.37;77.15;98401.63;4973564;28;20439;-78
2023/10/30 08:01:18;;;;;;;18.40;4.40;;;;;;;14.40;77.17;98413.88;4973718;28;20054;-78
2023/10/30 08:03:45;;;;;;;18.83;4.38;;;;;;;14.40;77.40;98416.53;4973249;28;20027;-83
2023/10/30 08:06:10;;;;;;;13.07;4.00;;;;;;;14.42;77.20;98415.50;4973029;28;20043;-77
2023/10/30 08:08:36;;;;;;;17.17;4.00;;;;;;;14.44;77.12;98423.38;4973211;28;20031;-77
2023/10/30 08:11:02;;;;;;;22.98;4.80;;;;;;;14.44;77.64;98433.97;4973356;28;20031;-82
2023/10/30 08:13:27;;;;;;;17.23;4.10;;;;;;;14.43;77.74;98438.38;4973239;28;20033;-78
2023/10/30 08:15:52;;;;;;;14.63;4.03;;;;;;;14.38;77.67;98442.22;4973375;28;20031;-81
2023/10/30 08:18:19;;;;;;;14.27;3.90;;;;;;;14.37;77.62;98449.28;4955943;28;20047;-78
2023/10/30 08:20:44;;;;;;;19.13;4.80;;;;;;;14.39;77.71;98457.19;4962674;28;20513;-81
2023/10/30 08:23:10;;;;;;;16.17;3.83;;;;;;;14.41;77.85;98447.38;4965119;28;20106;-78
2023/10/30 08:25:35;;;;;;;15.60;4.47;;;;;;;14.41;77.86;98457.97;4959824;28;20598;-78
2023/10/30 08:28:01;;;;;;;14.80;4.23;;;;;;;14.38;77.95;98456.31;4972125;28;20036;-85
2023/10/30 08:30:26;;;;;;;18.27;4.47;;;;;;;14.38;78.22;98458.09;4969804;28;20614;-82
2023/10/30 08:32:52;;;;;;;16.27;4.23;;;;;;;14.40;78.02;98461.53;4954774;28;20045;-81
2023/10/30 08:35:17;;;;;;;19.27;4.43;;;;;;;14.42;78.14;98462.31;4961433;28;20023;-83
2023/10/30 08:37:43;;;;;;;16.60;4.63;;;;;;;14.47;78.01;98465.59;4968408;28;20027;-84
2023/10/30 08:40:09;;;;;;;19.37;4.57;;;;;;;14.50;78.01;98470.72;4970200;28;20027;-78
2023/10/30 08:42:34;;;;;;;19.13;4.65;;;;;;;14.51;78.00;98461.84;4968977;28;20031;-82
2023/10/30 08:45:00;;;;;;;18.87;4.80;;;;;;;14.53;78.13;98465.28;4958603;28;20562;-76
2023/10/30 08:47:26;;;;;;;16.63;4.47;;;;;;;14.55;77.88;98463.41;4969429;28;20026;-85
2023/10/30 08:49:51;;;;;;;16.37;4.27;;;;;;;14.56;77.94;98459.81;4968774;28;20046;-85
2023/10/30 08:52:17;;;;;;;18.35;5.28;;;;;;;14.58;78.21;98467.72;4983977;28;20113;-78
2023/10/30 08:54:45;;;;;;;15.97;4.40;;;;;;;14.58;78.24;98468.56;4971317;28;20400;-82
2023/10/30 08:57:11;;;;;;;16.17;4.80;;;;;;;14.64;78.31;98475.34;4953255;28;20055;-78
2023/10/30 08:59:38;;;;;;;20.40;4.40;;;;;;;14.68;77.87;98482.19;4940267;28;20031;-78
2023/10/30 09:02:06;;;;;;;14.80;4.47;;;;;;;14.73;77.92;98484.66;4972151;28;20035;-79
2023/10/30 09:04:33;;;;;;;14.30;4.50;;;;;;;14.81;77.72;98484.28;4972386;28;20039;-83
2023/10/30 09:06:58;;;;;;;14.97;4.40;;;;;;;14.82;77.96;98484.19;4962823;28;20625;-83
2023/10/30 09:09:24;;;;;;;15.52;4.53;;;;;;;14.83;77.75;98488.59;4952781;29;20110;-81
2023/10/30 09:11:49;;;;;;;16.07;4.03;;;;;;;14.85;77.90;98489.38;4953145;29;20042;-78
2023/10/30 09:14:15;;;;;;;15.67;4.07;;;;;;;14.88;77.59;98486.56;4953252;29;20069;-78
2023/10/30 09:16:40;;;;;;;21.97;4.37;;;;;;;14.91;77.73;98497.00;4953301;28;20114;-88
2023/10/30 09:19:05;;;;;;;16.95;4.00;;;;;;;14.93;77.56;98495.13;4952927;29;20504;-80
2023/10/30 09:21:31;;;;;;;14.03;4.10;;;;;;;14.95;77.52;98494.19;4953351;28;20114;-82
2023/10/30 09:23:56;;;;;;;19.27;4.60;;;;;;;14.92;77.88;98493.41;4958092;28;20019;-83
2023/10/30 09:26:21;;;;;;;18.07;5.40;;;;;;;14.92;77.74;98496.06;4970100;28;20023;-86
2023/10/30 09:28:47;;;;;;;18.40;5.67;;;;;;;14.92;77.92;98503.13;4972288;28;20034;-79
2023/10/30 09:31:12;;;;;;;25.67;5.57;;;;;;;14.93;77.84;98510.16;4964503;28;20054;-82
2023/10/30 09:33:37;;;;;;;23.30;5.55;;;;;;;14.96;77.85;98504.72;4952921;29;20030;-90
2023/10/30 09:36:05;;;;;;;21.30;4.83;;;;;;;15.00;77.86;98505.41;4953907;29;20061;-84
2023/10/30 09:38:31;;;;;;;18.42;4.90;;;;;;;14.99;77.91;98511.66;4952494;28;20086;-83
2023/10/30 09:41:07;;;;;;;16.53;6.00;;;;;;;15.01;77.66;98515.94;4968546;28;20026;-79
2023/10/30 09:43:37;;;;;;;22.23;5.78;;;;;;;15.05;77.82;98508.69;4957593;28;20031;-81
2023/10/30 09:46:07;;;;;;;23.48;5.72;;;;;;;15.06;77.83;98521.88;4940581;29;20031;-81
2023/10/30 09:48:33;;;;;;;19.83;5.40;;;;;;;15.08;78.00;98513.84;4952198;29;20518;-81
2023/10/30 09:51:00;;;;;;;19.65;5.68;;;;;;;15.09;77.97;98515.56;4966579;28;20027;-81
2023/10/30 09:53:27;;;;;;;19.10;5.32;;;;;;;15.12;77.59;98510.09;4971056;28;20039;-82
2023/10/30 09:55:54;;;;;;;17.10;5.32;;;;;;;15.12;77.89;98514.53;4960934;28;20098;-82
2023/10/30 09:58:23;;;;;;;14.52;4.70;;;;;;;15.13;77.80;98517.13;4966667;28;20133;-79
2023/10/30 10:00:49;;;;;;;16.83;4.50;;;;;;;15.15;78.04;98515.25;4966250;28;20066;-80
2023/10/30 10:03:14;;;;;;;18.02;5.00;;;;;;;15.19;78.00;98522.09;4951950;29;20059;-78
2023/10/30 10:05:40;;;;;;;17.60;5.00;;;;;;;15.23;78.15;98532.53;4951972;29;20567;-82
2023/10/30 10:08:06;;;;;;;16.73;4.43;;;;;;;15.25;78.19;98541.28;4952278;29;20106;-81
2023/10/30 10:11:09;;;;;;;19.20;4.87;;;;;;;15.22;78.31;98537.00;4951727;29;20558;-77
2023/10/30 10:13:37;;;;;;;15.18;4.47;;;;;;;15.30;78.13;98523.31;4928936;29;20043;-79
2023/10/30 10:16:03;;;;;;;20.73;4.70;;;;;;;15.36;78.28;98523.03;4929843;29;20492;-78
2023/10/30 10:18:31;;;;;;;17.40;4.80;;;;;;;15.41;78.32;98507.72;4945648;28;20043;-82
2023/10/30 10:21:02;;;;;;;11.77;4.17;;;;;;;15.45;77.90;98503.97;4965245;28;20090;-82
2023/10/30 10:23:32;;;;;;;13.70;5.00;;;;;;;15.49;77.93;98504.69;4960434;28;20033;-83
2023/10/30 10:26:05;;;;;;;16.42;4.45;;;;;;;15.51;78.13;98516.06;4957359;28;20037;-79
2023/10/30 10:28:31;;;;;;;12.32;4.10;;;;;;;15.56;77.85;98518.47;4940414;28;20086;-80
2023/10/30 10:30:58;;;;;;;21.70;4.65;;;;;;;15.60;77.77;98528.81;4954078;28;20637;-83
2023/10/30 10:33:27;;;;;;;16.97;4.73;;;;;;;15.64;78.18;98532.19;4951728;29;20070;-82
2023/10/30 10:35:54;;;;;;;15.15;4.43;;;;;;;15.67;77.73;98532.03;4964082;28;20035;-79
2023/10/30 10:38:21;;;;;;;19.05;4.60;;;;;;;15.72;77.69;98545.91;4970956;28;20054;-82
2023/10/30 10:40:47;;;;;;;19.45;4.75;;;;;;;15.74;77.71;98544.00;4971116;28;20030;-79
2023/10/30 10:43:15;;;;;;;16.98;4.68;;;;;;;15.78;77.59;98547.38;4971008;28;20033;-80
2023/10/30 10:45:42;;;;;;;20.67;5.47;;;;;;;15.84;77.86;98556.81;4971096;28;20030;-82
2023/10/30 10:48:09;;;;;;;20.05;6.22;;;;;;;15.88;77.82;98561.00;4971025;28;20077;-79
2023/10/30 10:50:35;;;;;;;23.48;8.15;;;;;;;15.91;77.92;98571.50;4973410;28;20042;-83
2023/10/30 10:53:03;;;;;;;20.13;6.80;;;;;;;15.95;77.90;98573.03;4970780;28;20028;-79
2023/10/30 10:55:31;;;;;;;18.65;5.63;;;;;;;15.98;77.81;98572.88;4973125;28;20034;-83
2023/10/30 10:57:57;;;;;;;15.65;4.95;;;;;;;16.03;77.74;98576.13;4974896;28;20042;-80
2023/10/30 11:00:28;;;;;;;20.27;4.68;;;;;;;16.04;77.94;98577.88;4974583;28;20031;-83
2023/10/30 11:03:01;;;;;;;18.23;4.83;;;;;;;16.05;77.88;98579.59;4974503;28;20027;-82
2023/10/30 11:05:29;;;;;;;22.67;5.22;;;;;;;16.05;77.98;98595.53;4974777;28;20042;-79
2023/10/30 11:08:26;;;;;;;21.90;6.00;;;;;;;16.00;78.31;98600.19;4974760;28;20431;-79
2023/10/30 11:10:58;;;;;;;26.55;5.78;;;;;;;16.00;78.51;98605.50;4955085;29;20039;-81
2023/10/30 11:14:08;;;;;;;20.20;5.78;;;;;;;15.98;79.39;98615.34;4954996;29;20041;-82
2023/10/30 11:16:49;;;;;;;22.57;6.10;;;;;;;15.95;79.37;98626.13;4961133;28;20039;-82
2023/10/30 11:19:19;;;;;;;20.58;4.82;;;;;;;15.93;79.58;98638.63;4974135;28;20089;-82
2023/10/30 11:21:47;;;;;;;15.32;4.82;;;;;;;15.90;79.88;98649.41;4974404;28;20070;-84